Terminal Aerodrome Forecast
Issued by NWS

Home | Current Version | Previous Version | Text Only | Print | Product List | Glossary On
Versions: 1 2 3 4 5 6 7 8 9 10 11 12
000
FTUS44 KTSA 262320
TAFFYV
TAF
KFYV 262320Z 2700/2724 15004KT P6SM SKC
     FM270400 00000KT P6SM VCTS SCT050CB BKN150
     FM270800 00000KT P6SM SCT250
     FM271600 16007KT P6SM SCT250=

USA.gov is the U.S. government's official web portal to all federal, state and local government web resources and services.